createdAt,value
2023-01-30T00:01:03.799Z,3.72
2023-01-30T00:03:31.648Z,4.19
2023-01-30T00:05:59.155Z,3.60
2023-01-30T00:08:26.599Z,3.49
2023-01-30T00:10:54.443Z,3.29
2023-01-30T00:13:21.843Z,2.31
2023-01-30T00:15:49.270Z,2.87
2023-01-30T00:18:16.943Z,2.83
2023-01-30T00:20:44.375Z,2.67
2023-01-30T00:23:11.767Z,2.99
2023-01-30T00:25:39.643Z,2.73
2023-01-30T00:28:07.193Z,3.00
2023-01-30T00:30:34.729Z,2.63
2023-01-30T00:33:02.456Z,2.05
2023-01-30T00:35:30.078Z,2.05
2023-01-30T00:37:58.312Z,0.04
2023-01-30T00:40:27.838Z,0.02
2023-01-30T00:43:14.398Z,-1.20
2023-01-30T00:46:02.835Z,-0.35
2023-01-30T00:48:30.394Z,-1.36
2023-01-30T00:50:58.197Z,-1.06
2023-01-30T00:53:25.833Z,-1.96
2023-01-30T00:55:53.983Z,0.93
2023-01-30T00:58:22.516Z,3.73
2023-01-30T01:00:50.574Z,3.27
2023-01-30T01:03:18.699Z,-0.22
2023-01-30T01:05:46.453Z,-0.57
2023-01-30T01:08:15.027Z,2.29
2023-01-30T01:10:42.613Z,2.09
2023-01-30T01:13:10.692Z,-0.18
2023-01-30T01:15:38.241Z,-0.50
2023-01-30T01:18:06.567Z,3.25
2023-01-30T01:20:34.340Z,4.63
2023-01-30T01:23:03.428Z,2.05
2023-01-30T01:25:30.779Z,0.35
2023-01-30T01:27:58.440Z,0.11
2023-01-30T01:30:25.916Z,-0.86
2023-01-30T01:32:53.394Z,0.40
2023-01-30T01:35:21.088Z,2.00
2023-01-30T01:37:48.603Z,1.98
2023-01-30T01:40:37.894Z,0.96
2023-01-30T01:43:23.078Z,-0.37
2023-01-30T01:46:03.795Z,-1.23
2023-01-30T01:48:54.822Z,1.70
2023-01-30T01:51:49.981Z,2.30
2023-01-30T01:54:22.876Z,3.78
2023-01-30T01:56:50.574Z,0.16
2023-01-30T01:59:24.893Z,0.17
2023-01-30T02:01:55.293Z,0.34
2023-01-30T02:04:41.646Z,3.13
2023-01-30T02:07:09.137Z,1.31
2023-01-30T02:09:37.665Z,-0.06
2023-01-30T02:12:05.986Z,-0.73
2023-01-30T02:14:34.306Z,-0.80
2023-01-30T02:17:01.719Z,-1.50
2023-01-30T02:19:41.498Z,-1.68
2023-01-30T02:22:29.040Z,-1.53
2023-01-30T02:25:15.094Z,-1.37
2023-01-30T02:27:58.254Z,-1.96
2023-01-30T02:30:41.284Z,-1.76
2023-01-30T02:33:23.324Z,0.24
2023-01-30T02:36:03.053Z,2.01
2023-01-30T02:38:43.255Z,3.60
2023-01-30T02:41:15.494Z,3.73
2023-01-30T02:44:18.336Z,2.66
2023-01-30T02:46:54.642Z,3.64
2023-01-30T02:49:29.812Z,-0.42
2023-01-30T02:52:00.400Z,1.53
2023-01-30T02:54:28.040Z,1.90
2023-01-30T02:56:57.741Z,2.26
2023-01-30T02:59:25.199Z,0.61
2023-01-30T03:02:03.719Z,0.74
2023-01-30T03:04:31.838Z,1.09
2023-01-30T03:07:30.508Z,1.66
2023-01-30T03:10:24.365Z,-2.27
2023-01-30T03:13:19.821Z,-1.77
2023-01-30T03:16:00.431Z,-2.78
2023-01-30T03:18:28.157Z,-2.28
2023-01-30T03:20:56.095Z,-2.73
2023-01-30T03:23:23.513Z,-2.55
2023-01-30T03:25:51.343Z,-2.44
2023-01-30T03:28:21.240Z,-2.13
2023-01-30T03:30:49.028Z,-2.28
2023-01-30T03:33:16.574Z,-2.00
2023-01-30T03:35:47.087Z,-1.55
2023-01-30T03:38:14.865Z,-1.80
2023-01-30T03:40:42.727Z,-2.14
2023-01-30T03:43:10.469Z,-2.07
2023-01-30T03:45:38.008Z,-1.63
2023-01-30T03:48:05.925Z,-2.17
2023-01-30T03:50:33.928Z,-1.68
2023-01-30T03:53:01.543Z,-1.18
2023-01-30T03:55:29.491Z,-1.29
2023-01-30T03:57:58.029Z,-2.42
2023-01-30T04:00:27.523Z,-2.91
2023-01-30T04:02:57.197Z,-0.17
2023-01-30T04:05:43.920Z,-1.31
2023-01-30T04:08:11.607Z,-1.78
2023-01-30T04:10:39.058Z,1.69
2023-01-30T04:13:06.595Z,2.05
2023-01-30T04:15:34.359Z,3.25
2023-01-30T04:18:02.117Z,0.73
2023-01-30T04:20:30.333Z,-1.21
2023-01-30T04:22:58.194Z,-1.34
2023-01-30T04:25:25.884Z,-2.08
2023-01-30T04:27:53.389Z,-0.57
2023-01-30T04:30:21.437Z,-2.05
2023-01-30T04:32:49.959Z,-2.27
2023-01-30T04:35:17.650Z,-2.65
2023-01-30T04:37:45.770Z,-1.69
2023-01-30T04:40:13.676Z,-1.53
2023-01-30T04:42:41.226Z,-1.55
2023-01-30T04:45:11.835Z,-1.06
2023-01-30T04:47:39.329Z,-1.05
2023-01-30T04:50:07.255Z,-1.19
2023-01-30T04:52:35.037Z,-0.94
2023-01-30T04:55:03.135Z,0.34
2023-01-30T04:57:30.654Z,1.10
2023-01-30T04:59:58.896Z,1.38
2023-01-30T05:02:26.563Z,1.11
2023-01-30T05:04:53.973Z,0.08
2023-01-30T05:07:22.112Z,-0.14
2023-01-30T05:09:49.607Z,-0.75
2023-01-30T05:12:17.028Z,-0.38
2023-01-30T05:14:46.507Z,-0.42
2023-01-30T05:17:13.998Z,-0.60
2023-01-30T05:19:41.445Z,-0.15
2023-01-30T05:22:09.100Z,-0.49
2023-01-30T05:24:36.805Z,-0.53
2023-01-30T05:27:04.615Z,-0.34
2023-01-30T05:29:32.351Z,-0.31
2023-01-30T05:31:59.745Z,-0.43
2023-01-30T05:34:27.208Z,0.23
2023-01-30T05:36:54.880Z,-0.24
2023-01-30T05:39:22.183Z,0.02
2023-01-30T05:41:49.542Z,-0.24
2023-01-30T05:44:17.253Z,-0.56
2023-01-30T05:46:44.763Z,-0.98
2023-01-30T05:49:12.191Z,-1.96
2023-01-30T05:51:39.860Z,-2.34
2023-01-30T05:54:07.151Z,-1.90
2023-01-30T05:56:34.751Z,-1.30
2023-01-30T05:59:02.227Z,-1.15
2023-01-30T06:01:29.810Z,-2.33
2023-01-30T06:03:58.514Z,-2.07
2023-01-30T06:06:26.033Z,-2.90
2023-01-30T06:08:54.892Z,-2.65
2023-01-30T06:11:23.654Z,-3.00
2023-01-30T06:13:51.151Z,-3.03
2023-01-30T06:16:19.255Z,-2.81
2023-01-30T06:18:47.253Z,-2.83
2023-01-30T06:21:15.336Z,-2.24
2023-01-30T06:23:43.090Z,-2.28
2023-01-30T06:26:10.851Z,-1.40
2023-01-30T06:28:38.205Z,-1.55
2023-01-30T06:31:06.215Z,-0.48
2023-01-30T06:33:33.920Z,-1.12
2023-01-30T06:36:01.608Z,0.61
2023-01-30T06:38:29.055Z,1.16
2023-01-30T06:40:56.735Z,1.50
2023-01-30T06:43:24.119Z,0.86
2023-01-30T06:45:51.906Z,0.51
2023-01-30T06:48:19.703Z,0.02
2023-01-30T06:50:48.230Z,0.14
2023-01-30T06:53:15.761Z,0.19
2023-01-30T06:55:43.639Z,0.95
2023-01-30T06:58:13.005Z,0.83
2023-01-30T07:00:42.478Z,0.96
2023-01-30T07:03:11.809Z,1.08
2023-01-30T07:05:40.130Z,1.03
2023-01-30T07:08:07.825Z,0.32
2023-01-30T07:10:36.018Z,0.42
2023-01-30T07:13:04.117Z,0.74
2023-01-30T07:15:32.438Z,2.68
2023-01-30T07:18:00.688Z,1.71
2023-01-30T07:20:30.092Z,1.14
2023-01-30T07:22:57.726Z,0.55
2023-01-30T07:25:26.921Z,2.51
2023-01-30T07:27:59.946Z,2.08
2023-01-30T07:30:29.270Z,1.72
2023-01-30T07:32:58.086Z,1.34
2023-01-30T07:35:26.882Z,2.66
2023-01-30T07:37:54.636Z,1.46
2023-01-30T07:40:22.322Z,1.23
2023-01-30T07:43:00.389Z,2.30
2023-01-30T07:45:35.893Z,4.21
2023-01-30T07:48:03.693Z,3.98
2023-01-30T07:50:31.452Z,0.85
2023-01-30T07:52:58.998Z,2.47
2023-01-30T07:55:27.311Z,1.75
2023-01-30T07:57:55.029Z,3.66
2023-01-30T08:00:22.621Z,4.53
2023-01-30T08:02:50.336Z,6.28
2023-01-30T08:05:17.797Z,6.62
2023-01-30T08:07:47.441Z,6.97
2023-01-30T08:10:15.938Z,7.00
2023-01-30T08:12:43.593Z,6.85
2023-01-30T08:15:11.281Z,7.46
2023-01-30T08:17:39.085Z,5.90
2023-01-30T08:20:07.247Z,5.63
2023-01-30T08:22:34.754Z,6.28
2023-01-30T08:25:02.629Z,6.21
2023-01-30T08:27:30.227Z,4.62
2023-01-30T08:29:57.833Z,5.34
2023-01-30T08:32:25.565Z,5.91
2023-01-30T08:34:53.001Z,4.69
2023-01-30T08:37:20.470Z,3.81
2023-01-30T08:39:48.154Z,5.93
2023-01-30T08:42:15.614Z,5.81
2023-01-30T08:44:42.988Z,6.28
2023-01-30T08:47:10.703Z,7.77
2023-01-30T08:49:38.119Z,7.19
2023-01-30T08:52:05.705Z,7.01
2023-01-30T08:54:33.462Z,7.05
2023-01-30T08:57:00.848Z,8.10
2023-01-30T08:59:28.219Z,6.78
2023-01-30T09:01:56.068Z,7.63
2023-01-30T09:04:25.059Z,7.54
2023-01-30T09:06:52.824Z,4.46
2023-01-30T09:09:20.560Z,3.59
2023-01-30T09:11:48.290Z,5.66
2023-01-30T09:14:19.958Z,3.48
2023-01-30T09:16:49.700Z,6.46
2023-01-30T09:19:17.112Z,7.06
2023-01-30T09:21:44.346Z,4.73
2023-01-30T09:24:11.984Z,2.94
2023-01-30T09:26:40.500Z,3.01
2023-01-30T09:29:07.901Z,3.42
2023-01-30T09:31:35.905Z,4.29
2023-01-30T09:34:03.552Z,4.44
2023-01-30T09:36:30.843Z,2.37
2023-01-30T09:38:58.482Z,3.67
2023-01-30T09:41:50.726Z,2.12
2023-01-30T09:44:23.354Z,2.07
2023-01-30T09:47:13.824Z,3.33
2023-01-30T09:49:56.408Z,1.82
2023-01-30T09:52:32.956Z,1.62
2023-01-30T09:55:15.658Z,1.46
2023-01-30T09:57:42.990Z,1.96
2023-01-30T10:00:13.822Z,1.81
2023-01-30T10:02:41.843Z,1.93
2023-01-30T10:05:09.200Z,2.08
2023-01-30T10:07:49.335Z,3.65
2023-01-30T10:10:26.868Z,2.52
2023-01-30T10:13:10.314Z,2.03
2023-01-30T10:15:50.489Z,3.67
2023-01-30T10:18:50.128Z,3.43
2023-01-30T10:21:47.655Z,2.87
2023-01-30T10:24:42.149Z,2.75
2023-01-30T10:27:17.019Z,2.97
2023-01-30T10:29:54.460Z,2.37
2023-01-30T10:32:29.030Z,2.60
2023-01-30T10:35:00.152Z,2.95
2023-01-30T10:37:32.975Z,1.84
2023-01-30T10:40:04.017Z,2.58
2023-01-30T10:42:49.157Z,2.66
2023-01-30T10:45:20.560Z,2.99
2023-01-30T10:47:55.303Z,1.93
2023-01-30T10:51:15.175Z,1.99
2023-01-30T10:53:48.221Z,1.88
2023-01-30T10:56:20.789Z,2.93
2023-01-30T10:58:59.231Z,2.76
2023-01-30T11:01:41.336Z,3.12
2023-01-30T11:04:36.562Z,2.72
2023-01-30T11:07:05.663Z,2.89
2023-01-30T11:09:44.568Z,2.73
2023-01-30T11:12:12.334Z,2.09
2023-01-30T11:15:00.922Z,1.98
2023-01-30T11:17:29.426Z,3.15
2023-01-30T11:19:58.289Z,2.86
2023-01-30T11:22:27.130Z,3.16
2023-01-30T11:25:24.221Z,4.17
2023-01-30T11:27:55.056Z,5.00
2023-01-30T11:30:27.969Z,5.02
2023-01-30T11:33:11.650Z,5.40
2023-01-30T11:35:59.127Z,3.97
2023-01-30T11:38:32.792Z,3.51
2023-01-30T11:41:11.542Z,3.66
2023-01-30T11:43:40.135Z,3.23
2023-01-30T11:46:09.267Z,3.02
2023-01-30T11:49:02.668Z,3.00
2023-01-30T11:51:35.616Z,2.91
2023-01-30T11:54:05.351Z,3.24
2023-01-30T11:56:34.208Z,3.54
2023-01-30T11:59:13.904Z,2.82
2023-01-30T12:01:41.163Z,3.40
2023-01-30T12:04:12.065Z,2.89
2023-01-30T12:06:42.327Z,2.56
2023-01-30T12:09:30.473Z,2.77
2023-01-30T12:11:57.895Z,2.78
2023-01-30T12:14:25.592Z,4.01
2023-01-30T12:17:18.448Z,3.79
2023-01-30T12:19:58.472Z,3.80
2023-01-30T12:22:32.138Z,5.37
2023-01-30T12:25:18.538Z,4.05
2023-01-30T12:28:07.487Z,3.03
2023-01-30T12:30:46.531Z,5.05
2023-01-30T12:35:50.374Z,3.77
2023-01-30T12:38:45.216Z,3.89
2023-01-30T12:41:24.762Z,3.41
2023-01-30T12:44:23.381Z,3.77
2023-01-30T12:47:34.062Z,5.03
2023-01-30T12:50:10.818Z,4.77
2023-01-30T12:52:44.312Z,5.01
2023-01-30T12:55:37.627Z,4.28
2023-01-30T12:58:27.358Z,4.72
2023-01-30T13:01:16.712Z,4.69
2023-01-30T13:04:13.315Z,6.90
2023-01-30T13:06:50.309Z,5.28
2023-01-30T13:09:31.392Z,4.02
2023-01-30T13:12:01.578Z,3.77
2023-01-30T13:14:36.664Z,3.60
2023-01-30T13:17:20.336Z,4.93
2023-01-30T13:20:13.159Z,6.26
2023-01-30T13:22:52.709Z,7.85
2023-01-30T13:25:23.190Z,7.67
2023-01-30T13:27:57.797Z,8.75
2023-01-30T13:30:27.632Z,8.70
2023-01-30T13:33:01.346Z,9.45
2023-01-30T13:35:30.699Z,9.34
2023-01-30T13:37:58.819Z,9.63
2023-01-30T13:40:29.206Z,6.14
2023-01-30T13:43:01.722Z,5.21
2023-01-30T13:45:32.400Z,5.74
2023-01-30T13:48:03.772Z,6.03
2023-01-30T13:50:50.566Z,6.65
2023-01-30T13:53:30.539Z,6.01
2023-01-30T13:55:58.874Z,6.18
2023-01-30T13:58:45.318Z,5.16
2023-01-30T14:01:13.253Z,4.22
2023-01-30T14:03:42.036Z,3.80
2023-01-30T14:06:21.873Z,3.51
2023-01-30T14:08:51.018Z,2.78
2023-01-30T14:11:34.112Z,3.12
2023-01-30T14:14:06.160Z,3.20
2023-01-30T14:16:40.133Z,3.88
2023-01-30T14:19:21.071Z,3.64
2023-01-30T14:21:57.945Z,3.56
2023-01-30T14:24:25.469Z,3.99
2023-01-30T14:26:59.715Z,3.82
2023-01-30T14:29:42.468Z,3.77
2023-01-30T14:32:13.767Z,3.94
2023-01-30T14:34:47.506Z,4.51
2023-01-30T14:37:27.068Z,4.30
2023-01-30T14:39:55.683Z,4.02
2023-01-30T14:42:26.621Z,3.89
2023-01-30T14:45:01.775Z,3.22
2023-01-30T14:47:36.662Z,4.50
2023-01-30T14:50:19.247Z,5.19
2023-01-30T14:52:47.016Z,5.42
2023-01-30T14:55:21.792Z,4.50
2023-01-30T14:57:57.063Z,5.85
2023-01-30T15:00:30.375Z,5.59
2023-01-30T15:03:00.649Z,6.78
2023-01-30T15:05:32.144Z,7.07
2023-01-30T15:07:59.653Z,4.90
2023-01-30T15:10:34.073Z,4.09
2023-01-30T15:13:07.773Z,6.47
2023-01-30T15:15:35.060Z,6.62
2023-01-30T15:18:25.346Z,8.05
2023-01-30T15:20:58.626Z,7.72
2023-01-30T15:23:44.816Z,8.39
2023-01-30T15:26:14.811Z,8.27
2023-01-30T15:29:01.316Z,8.74
2023-01-30T15:31:28.559Z,9.91
2023-01-30T15:33:57.424Z,10.23
2023-01-30T15:36:31.589Z,7.63
2023-01-30T15:39:03.382Z,7.69
2023-01-30T15:41:31.813Z,9.05
2023-01-30T15:44:06.047Z,5.78
2023-01-30T15:46:42.635Z,4.26
2023-01-30T15:49:24.879Z,4.48
2023-01-30T15:51:52.289Z,4.07
2023-01-30T15:54:20.319Z,3.53
2023-01-30T15:56:49.659Z,3.30
2023-01-30T15:59:26.599Z,2.81
2023-01-30T16:02:07.955Z,2.41
2023-01-30T16:04:35.509Z,2.93
2023-01-30T16:07:14.064Z,3.17
2023-01-30T16:09:42.661Z,3.08
2023-01-30T16:12:29.198Z,3.46
2023-01-30T16:15:12.319Z,3.89
2023-01-30T16:17:48.409Z,2.77
2023-01-30T16:20:16.108Z,3.16
2023-01-30T16:22:44.206Z,2.45
2023-01-30T16:25:22.398Z,1.82
2023-01-30T16:27:51.698Z,2.43
2023-01-30T16:30:23.284Z,1.86
2023-01-30T16:32:51.775Z,2.00
2023-01-30T16:35:27.393Z,2.32
2023-01-30T16:37:56.986Z,2.52
2023-01-30T16:40:31.976Z,2.23
2023-01-30T16:43:04.360Z,2.31
2023-01-30T16:45:34.634Z,2.10
2023-01-30T16:48:17.653Z,1.85
2023-01-30T16:50:47.785Z,2.67
2023-01-30T16:53:17.140Z,2.23
2023-01-30T16:55:54.853Z,1.65
2023-01-30T16:58:22.374Z,1.83
2023-01-30T17:00:52.542Z,1.87
2023-01-30T17:03:24.691Z,1.82
2023-01-30T17:05:52.938Z,1.71
2023-01-30T17:08:40.649Z,1.56
2023-01-30T17:11:08.814Z,1.72
2023-01-30T17:13:41.815Z,1.79
2023-01-30T17:16:17.741Z,2.94
2023-01-30T17:18:55.049Z,3.07
2023-01-30T17:21:25.422Z,3.30
2023-01-30T17:24:05.956Z,2.68
2023-01-30T17:26:34.295Z,2.40
2023-01-30T17:29:01.822Z,5.06
2023-01-30T17:31:29.732Z,4.32
2023-01-30T17:33:58.140Z,3.33
2023-01-30T17:36:25.703Z,2.68
2023-01-30T17:38:56.595Z,2.62
2023-01-30T17:41:26.015Z,3.35
2023-01-30T17:43:54.619Z,3.87
2023-01-30T17:46:23.718Z,7.26
2023-01-30T17:48:51.953Z,6.97
2023-01-30T17:51:19.420Z,7.30
2023-01-30T17:53:49.134Z,7.43
2023-01-30T17:56:23.049Z,6.87
2023-01-30T17:58:51.179Z,7.12
2023-01-30T18:01:19.187Z,8.05
2023-01-30T18:03:47.455Z,8.27
2023-01-30T18:06:16.115Z,8.13
2023-01-30T18:08:44.117Z,8.55
2023-01-30T18:11:15.045Z,8.41
2023-01-30T18:13:42.892Z,7.71
2023-01-30T18:16:15.756Z,6.65
2023-01-30T18:18:44.276Z,7.92
2023-01-30T18:21:13.337Z,7.35
2023-01-30T18:23:41.440Z,8.37
2023-01-30T18:26:11.649Z,8.72
2023-01-30T18:28:40.579Z,8.16
2023-01-30T18:31:08.514Z,9.02
2023-01-30T18:33:37.127Z,7.66
2023-01-30T18:36:05.840Z,7.53
2023-01-30T18:38:34.101Z,8.49
2023-01-30T18:41:14.843Z,7.91
2023-01-30T18:43:45.417Z,8.00
2023-01-30T18:46:17.975Z,7.16
2023-01-30T18:48:47.488Z,7.53
2023-01-30T18:51:20.308Z,7.79
2023-01-30T18:53:49.104Z,8.22
2023-01-30T18:56:23.912Z,7.25
2023-01-30T18:58:53.667Z,8.20
2023-01-30T19:01:27.443Z,7.63
2023-01-30T19:03:59.712Z,9.12
2023-01-30T19:06:30.563Z,9.32
2023-01-30T19:08:59.355Z,9.06
2023-01-30T19:11:46.869Z,8.56
2023-01-30T19:14:16.189Z,7.66
2023-01-30T19:16:47.010Z,7.05
2023-01-30T19:19:16.185Z,7.65
2023-01-30T19:21:45.110Z,5.59
2023-01-30T19:24:15.875Z,5.22
2023-01-30T19:26:45.444Z,4.31
2023-01-30T19:29:13.460Z,4.24
2023-01-30T19:31:42.059Z,6.05
2023-01-30T19:34:11.270Z,6.47
2023-01-30T19:36:40.282Z,7.03
2023-01-30T19:39:08.683Z,6.83
2023-01-30T19:41:37.459Z,6.75
2023-01-30T19:44:06.765Z,7.26
2023-01-30T19:46:35.630Z,8.20
2023-01-30T19:49:05.767Z,7.73
2023-01-30T19:51:34.774Z,5.77
2023-01-30T19:54:06.694Z,7.49
2023-01-30T19:56:39.274Z,5.58
2023-01-30T19:59:07.582Z,5.70
2023-01-30T20:01:40.030Z,4.88
2023-01-30T20:04:08.862Z,5.36
2023-01-30T20:06:38.323Z,4.55
2023-01-30T20:09:09.839Z,5.09
2023-01-30T20:11:40.833Z,4.58
2023-01-30T20:14:08.932Z,4.65
2023-01-30T20:16:37.274Z,4.80
2023-01-30T20:19:06.739Z,4.64
2023-01-30T20:21:35.125Z,5.02
2023-01-30T20:24:04.164Z,4.53
2023-01-30T20:26:35.519Z,4.99
2023-01-30T20:29:04.406Z,4.90
2023-01-30T20:31:39.513Z,5.42
2023-01-30T20:34:09.091Z,4.06
2023-01-30T20:36:39.383Z,4.36
2023-01-30T20:39:09.281Z,4.95
2023-01-30T20:41:40.586Z,5.22
2023-01-30T20:44:09.114Z,4.81
2023-01-30T20:46:42.772Z,5.26
2023-01-30T20:49:14.876Z,7.91
2023-01-30T20:51:43.696Z,6.13
2023-01-30T20:54:12.819Z,4.83
2023-01-30T20:56:43.311Z,3.84
2023-01-30T20:59:24.238Z,3.86
2023-01-30T21:01:52.242Z,3.56
2023-01-30T21:04:21.984Z,5.44
2023-01-30T21:06:49.579Z,3.43
2023-01-30T21:09:18.668Z,4.33
2023-01-30T21:11:47.205Z,3.87
2023-01-30T21:14:15.449Z,4.41
2023-01-30T21:16:43.297Z,4.30
2023-01-30T21:19:14.164Z,3.67
2023-01-30T21:21:55.990Z,4.69
2023-01-30T21:24:29.017Z,4.52
2023-01-30T21:26:56.713Z,3.77
2023-01-30T21:29:26.118Z,3.02
2023-01-30T21:31:54.090Z,3.62
2023-01-30T21:34:21.692Z,3.19
2023-01-30T21:37:09.255Z,3.61
2023-01-30T21:39:55.141Z,3.06
2023-01-30T21:42:41.366Z,2.62
2023-01-30T21:45:08.781Z,2.81
2023-01-30T21:47:37.013Z,2.64
2023-01-30T21:50:04.967Z,2.52
2023-01-30T21:52:33.099Z,2.58
2023-01-30T21:55:00.675Z,2.79
2023-01-30T21:57:27.900Z,2.83
2023-01-30T21:59:55.621Z,2.89
2023-01-30T22:02:23.124Z,2.86
2023-01-30T22:04:50.690Z,2.92
2023-01-30T22:07:17.872Z,2.93
2023-01-30T22:09:45.048Z,3.38
2023-01-30T22:12:15.106Z,4.34
2023-01-30T22:14:42.311Z,4.34
2023-01-30T22:17:09.609Z,3.63
2023-01-30T22:19:37.100Z,3.83
2023-01-30T22:22:04.409Z,4.13
2023-01-30T22:24:31.664Z,3.92
2023-01-30T22:26:59.159Z,4.51
2023-01-30T22:29:26.376Z,3.79
2023-01-30T22:31:53.575Z,3.58
2023-01-30T22:34:22.446Z,3.62
2023-01-30T22:36:49.633Z,5.04
2023-01-30T22:39:16.776Z,4.32
2023-01-30T22:41:44.288Z,3.65
2023-01-30T22:44:11.507Z,4.40
2023-01-30T22:46:40.042Z,5.02
2023-01-30T22:49:08.319Z,3.51
2023-01-30T22:51:37.078Z,4.10
2023-01-30T22:54:05.372Z,3.39
2023-01-30T22:56:40.955Z,3.79
2023-01-30T22:59:08.461Z,3.32
2023-01-30T23:01:37.243Z,4.08
2023-01-30T23:04:10.165Z,3.34
2023-01-30T23:06:38.231Z,3.72
2023-01-30T23:09:05.845Z,4.19
2023-01-30T23:11:37.872Z,3.78
2023-01-30T23:14:06.939Z,3.30
2023-01-30T23:16:34.613Z,4.05
2023-01-30T23:19:04.455Z,3.72
2023-01-30T23:21:35.841Z,3.35
2023-01-30T23:24:23.279Z,3.33
2023-01-30T23:26:51.289Z,4.20
2023-01-30T23:29:20.129Z,4.11
2023-01-30T23:31:47.818Z,3.59
2023-01-30T23:34:17.984Z,3.41
2023-01-30T23:36:46.378Z,3.66
2023-01-30T23:39:14.434Z,3.37
2023-01-30T23:41:42.200Z,3.46
2023-01-30T23:44:09.692Z,2.82
2023-01-30T23:46:37.790Z,3.40
2023-01-30T23:49:06.455Z,2.99
2023-01-30T23:51:34.255Z,2.93
2023-01-30T23:54:01.761Z,3.01
2023-01-30T23:56:29.680Z,2.68
2023-01-30T23:58:56.870Z,3.15
